CYUB

Tuktoyaktuk Airport

Tuktoyaktuk, Northwest Territories, Canada
METAR CYUB 242100Z 34003KT 300V360 15SM BKN013 M02/M04 A2998 RMK SC7 SLP153
Observed Flight Rules
Sep-24 @ 21:00 UTC (30 minutes ago) Marginal Visual Flight Rules
Wind Visibility Clouds
340° at 3 knots 15 miles
  • Broken at 1,300' AGL
Temperatures Readings
Current -2°C / 28°F
Dewpoint -4°C / 25°F
Humidity 86%
Altimeter 29.98" Hg
Pressure 1015.3 hPa
Elevation 5
METAR CYUB 242100Z 34003KT 300V360 15SM BKN013 M02/M04 A2998 RMK SC7 SLP153
Observed Flight Rules
Sep-24 @ 21:00 UTC
(30 minutes ago)
MVFR
Wind Visibility
340° at 3 knots 15 miles
Clouds
  • Broken at 1,300' AGL
Temperature Dewpoint
-2°C / 28°F -4°C / 25°F
Humidity Altimeter Pressure
86% 29.98" Hg 1015.3 hPa